createdAt,value
2023-01-22T03:02:25.600Z,92944.00
2023-01-22T03:03:25.836Z,92942.00
2023-01-22T03:04:26.027Z,92942.00
2023-01-22T03:05:26.226Z,92944.00
2023-01-22T03:06:26.538Z,92942.00
2023-01-22T03:07:26.771Z,92940.00
2023-01-22T03:08:26.929Z,92938.00
2023-01-22T03:09:27.179Z,92936.00
2023-01-22T03:10:27.487Z,92938.00
2023-01-22T03:11:27.666Z,92934.00
2023-01-22T03:12:27.973Z,92936.00
2023-01-22T03:13:28.153Z,92936.00
2023-01-22T03:14:28.390Z,92936.00
2023-01-22T03:15:28.695Z,92940.00
2023-01-22T03:16:29.046Z,92938.00
2023-01-22T03:43:35.813Z,92942.00
2023-01-22T03:44:36.041Z,92938.00
2023-01-22T03:45:36.371Z,92940.00
2023-01-22T03:46:36.604Z,92946.00
2023-01-22T03:47:36.909Z,92948.00
2023-01-22T03:48:37.276Z,92942.00
2023-01-22T03:49:37.412Z,92942.00
2023-01-22T03:50:37.719Z,92944.00
2023-01-22T03:51:38.011Z,92944.00
2023-01-22T03:52:38.309Z,92946.00
2023-01-22T03:53:38.495Z,92946.00
2023-01-22T03:54:38.800Z,92944.00
2023-01-22T03:55:39.017Z,92946.00
2023-01-22T03:56:39.305Z,92946.00
2023-01-22T03:57:39.556Z,92946.00
2023-01-22T03:58:40.517Z,92946.00
2023-01-22T03:59:39.496Z,92950.00
2023-01-22T04:00:39.495Z,92950.00
2023-01-22T04:01:39.470Z,92952.00
2023-01-22T04:02:39.517Z,92954.00
2023-01-22T04:03:39.511Z,92956.00
2023-01-22T04:04:39.406Z,92956.00
2023-01-22T04:05:39.383Z,92956.00
2023-01-22T04:06:39.367Z,92958.00
2023-01-22T04:07:39.345Z,92962.00
2023-01-22T04:08:39.321Z,92962.00
2023-01-22T04:09:39.306Z,92962.00
2023-01-22T04:10:39.294Z,92960.00
2023-01-22T04:11:39.290Z,92960.00
2023-01-22T04:12:39.264Z,92960.00
2023-01-22T04:13:39.246Z,92964.00
2023-01-22T04:14:39.247Z,92964.00
2023-01-22T04:15:39.248Z,92962.00
2023-01-22T04:16:39.272Z,92960.00
2023-01-22T04:17:39.445Z,92960.00
2023-01-22T04:18:39.762Z,92964.00
2023-01-22T04:19:40.083Z,92966.00
2023-01-22T04:20:40.246Z,92968.00
2023-01-22T04:21:41.004Z,92968.00
2023-01-22T04:22:40.514Z,92966.00
2023-01-22T04:23:40.539Z,92966.00
2023-01-22T04:24:40.558Z,92968.00
2023-01-22T04:25:41.505Z,92968.00
2023-01-22T04:26:40.577Z,92966.00
2023-01-22T04:27:40.581Z,92970.00
2023-01-22T04:28:40.600Z,92972.00
2023-01-22T04:29:40.627Z,92972.00
2023-01-22T04:30:40.731Z,92973.00
2023-01-22T04:31:40.745Z,92973.00
2023-01-22T04:32:40.678Z,92973.00
2023-01-22T04:33:40.694Z,92973.00
2023-01-22T04:34:40.721Z,92973.00
2023-01-22T04:35:40.828Z,92977.00
2023-01-22T04:36:40.750Z,92975.00
2023-01-22T04:37:40.777Z,92975.00
2023-01-22T04:38:40.761Z,92977.00
2023-01-22T04:39:40.781Z,92975.00
2023-01-22T04:40:40.786Z,92977.00
2023-01-22T04:41:40.789Z,92977.00
2023-01-22T04:42:40.791Z,92975.00
2023-01-22T04:43:40.799Z,92979.00
2023-01-22T04:44:40.808Z,92977.00
2023-01-22T04:45:40.825Z,92979.00
2023-01-22T04:46:40.838Z,92979.00
2023-01-22T04:47:40.837Z,92981.00
2023-01-22T04:48:40.852Z,92981.00
2023-01-22T04:49:40.872Z,92981.00
2023-01-22T04:50:40.890Z,92985.00
2023-01-22T04:51:41.001Z,92983.00
2023-01-22T04:52:40.931Z,92985.00
2023-01-22T04:53:40.955Z,92985.00
2023-01-22T04:54:40.970Z,92985.00
2023-01-22T04:55:40.993Z,92987.00
2023-01-22T04:56:41.030Z,92987.00
2023-01-22T04:57:41.028Z,92989.00
2023-01-22T04:58:41.032Z,92993.00
2023-01-22T04:59:41.056Z,92989.00
2023-01-22T05:00:41.079Z,92987.00
2023-01-22T05:01:41.145Z,92989.00
2023-01-22T05:02:41.160Z,92991.00
2023-01-22T05:03:41.110Z,92991.00
2023-01-22T05:04:41.144Z,92993.00
2023-01-22T05:05:41.157Z,92995.00
2023-01-22T05:06:41.159Z,92993.00
2023-01-22T05:07:41.241Z,92995.00
2023-01-22T05:08:41.192Z,92999.00
2023-01-22T05:09:41.198Z,93001.00
2023-01-22T05:10:41.203Z,92999.00
2023-01-22T05:11:41.506Z,93001.00
2023-01-22T05:12:41.243Z,93005.00
2023-01-22T05:13:41.261Z,93003.00
2023-01-22T05:14:41.276Z,93005.00
2023-01-22T05:15:41.332Z,93007.00
2023-01-22T05:16:41.333Z,93011.00
2023-01-22T05:17:41.327Z,93009.00
2023-01-22T05:18:41.333Z,93009.00
2023-01-22T05:19:41.344Z,93009.00
2023-01-22T05:20:41.355Z,93011.00
2023-01-22T05:21:41.359Z,93011.00
2023-01-22T05:22:41.370Z,93009.00
2023-01-22T05:23:41.459Z,93009.00
2023-01-22T05:24:41.397Z,93005.00
2023-01-22T05:26:41.439Z,93001.00
2023-01-22T05:27:41.448Z,93003.00
2023-01-22T05:28:41.554Z,92999.00
2023-01-22T05:29:41.797Z,92999.00
2023-01-22T05:45:45.530Z,93015.00
2023-01-22T05:46:45.782Z,93013.00
2023-01-22T05:47:45.952Z,93017.00
2023-01-22T05:48:46.189Z,93019.00
2023-01-22T05:49:46.413Z,93019.00
2023-01-22T05:50:46.620Z,93021.00
2023-01-22T05:51:46.903Z,93023.00
2023-01-22T05:52:47.042Z,93021.00
2023-01-22T05:53:47.425Z,93023.00
2023-01-22T05:54:47.576Z,93023.00
2023-01-22T05:55:47.823Z,93021.00
2023-01-22T05:56:48.017Z,93021.00
2023-01-22T05:57:48.246Z,93023.00
2023-01-22T05:58:48.451Z,93021.00
2023-01-22T05:59:48.701Z,93025.00
2023-01-22T06:00:48.903Z,93025.00
2023-01-22T06:01:49.136Z,93027.00
2023-01-22T06:02:49.487Z,93030.00
2023-01-22T06:03:49.665Z,93030.00
2023-01-22T06:04:49.895Z,93030.00
2023-01-22T06:27:55.573Z,93044.00
2023-01-22T06:28:55.839Z,93044.00
2023-01-22T06:29:56.003Z,93046.00
2023-01-22T06:30:56.392Z,93044.00
2023-01-22T06:31:56.637Z,93046.00
2023-01-22T06:32:56.748Z,93046.00
2023-01-22T06:33:56.972Z,93042.00
2023-01-22T06:34:57.201Z,93048.00
2023-01-22T06:35:57.509Z,93050.00
2023-01-22T06:36:57.704Z,93050.00
2023-01-22T06:37:58.018Z,93050.00
2023-01-22T06:38:58.282Z,93048.00
2023-01-22T06:39:58.524Z,93054.00
2023-01-22T06:40:58.775Z,93054.00
2023-01-22T06:41:59.027Z,93050.00
2023-01-22T06:42:59.268Z,93052.00
2023-01-22T06:43:59.539Z,93052.00
2023-01-22T06:44:59.716Z,93056.00
2023-01-22T06:46:00.037Z,93054.00
2023-01-22T06:47:00.202Z,93056.00
2023-01-22T06:48:00.426Z,93060.00
2023-01-22T06:49:00.713Z,93058.00
2023-01-22T06:50:00.954Z,93060.00
2023-01-22T06:51:01.218Z,93060.00
2023-01-22T06:52:01.482Z,93060.00
2023-01-22T06:53:01.667Z,93062.00
2023-01-22T06:54:01.937Z,93060.00
2023-01-22T07:09:05.610Z,93085.00
2023-01-22T07:10:05.759Z,93085.00
2023-01-22T07:11:07.876Z,93085.00
2023-01-22T07:12:05.993Z,93089.00
2023-01-22T07:13:05.990Z,93097.00
2023-01-22T07:14:05.977Z,93097.00
2023-01-22T07:15:05.982Z,93097.00
2023-01-22T07:16:06.014Z,93087.00
2023-01-22T07:17:05.989Z,93097.00
2023-01-22T07:18:05.964Z,93097.00
2023-01-22T07:19:05.958Z,93101.00
2023-01-22T07:20:05.954Z,93103.00
2023-01-22T07:21:05.945Z,93099.00
2023-01-22T07:22:05.923Z,93099.00
2023-01-22T07:23:05.930Z,93101.00
2023-01-22T07:24:05.923Z,93099.00
2023-01-22T07:25:05.993Z,93103.00
2023-01-22T07:26:05.915Z,93103.00
2023-01-22T07:27:05.906Z,93107.00
2023-01-22T07:28:05.919Z,93105.00
2023-01-22T07:29:05.907Z,93109.00
2023-01-22T07:30:05.902Z,93111.00
2023-01-22T07:31:05.957Z,93109.00
2023-01-22T07:32:05.880Z,93111.00
2023-01-22T07:33:05.887Z,93111.00
2023-01-22T07:34:05.934Z,93111.00
2023-01-22T07:35:05.937Z,93109.00
2023-01-22T07:36:05.884Z,93109.00
2023-01-22T07:37:05.860Z,93107.00
2023-01-22T07:38:05.856Z,93107.00
2023-01-22T07:39:05.847Z,93105.00
2023-01-22T07:40:05.843Z,93103.00
2023-01-22T07:41:16.999Z,93103.00
2023-01-22T07:42:06.816Z,93103.00
2023-01-22T07:43:05.802Z,93105.00
2023-01-22T07:44:05.799Z,93105.00
2023-01-22T07:45:05.784Z,93105.00
2023-01-22T07:46:05.770Z,93103.00
2023-01-22T07:47:05.747Z,93101.00
2023-01-22T07:48:05.728Z,93101.00
2023-01-22T07:49:05.712Z,93101.00
2023-01-22T07:50:05.693Z,93101.00
2023-01-22T07:51:05.724Z,93103.00
2023-01-22T07:52:05.654Z,93103.00
2023-01-22T07:53:05.639Z,93105.00
2023-01-22T07:54:05.626Z,93105.00
2023-01-22T07:55:05.597Z,93105.00
2023-01-22T07:56:05.576Z,93103.00
2023-01-22T07:57:05.643Z,93111.00
2023-01-22T07:58:05.569Z,93112.00
2023-01-22T07:59:05.556Z,93111.00
2023-01-22T08:00:05.527Z,93111.00
2023-01-22T08:01:05.595Z,93109.00
2023-01-22T09:25:05.567Z,93142.00
2023-01-22T09:45:05.518Z,93148.00
2023-01-22T09:46:05.603Z,93148.00
2023-01-22T09:47:05.563Z,93150.00
2023-01-22T09:48:05.595Z,93152.00
2023-01-22T09:49:05.708Z,93154.00
2023-01-22T09:50:05.664Z,93154.00
2023-01-22T09:51:05.700Z,93148.00
2023-01-22T09:52:05.780Z,93148.00
2023-01-22T09:53:05.683Z,93150.00
2023-01-22T09:54:05.678Z,93146.00
2023-01-22T09:55:05.709Z,93146.00
2023-01-22T09:56:05.762Z,93148.00
2023-01-22T09:57:05.786Z,93144.00
2023-01-22T09:58:05.840Z,93146.00
2023-01-22T09:59:05.862Z,93142.00
2023-01-22T10:00:05.890Z,93146.00
2023-01-22T10:01:05.938Z,93146.00
2023-01-22T10:02:05.981Z,93142.00
2023-01-22T10:03:05.940Z,93144.00
2023-01-22T10:04:05.954Z,93144.00
2023-01-22T10:05:06.045Z,93142.00
2023-01-22T10:06:06.000Z,93140.00
2023-01-22T10:07:05.989Z,93142.00
2023-01-22T10:08:06.005Z,93142.00
2023-01-22T10:09:06.019Z,93144.00
2023-01-22T10:10:06.034Z,93146.00
2023-01-22T10:11:06.049Z,93144.00
2023-01-22T10:12:06.064Z,93144.00
2023-01-22T10:13:06.095Z,93140.00
2023-01-22T10:14:06.085Z,93138.00
2023-01-22T10:15:06.093Z,93140.00
2023-01-22T10:16:06.119Z,93140.00
2023-01-22T10:17:06.130Z,93134.00
2023-01-22T10:18:06.145Z,93136.00
2023-01-22T10:19:06.166Z,93136.00
2023-01-22T10:20:06.189Z,93138.00
2023-01-22T10:21:06.302Z,93136.00
2023-01-22T10:22:06.272Z,93138.00
2023-01-22T10:23:06.305Z,93142.00
2023-01-22T10:24:06.330Z,93142.00
2023-01-22T10:25:06.359Z,93140.00
2023-01-22T10:26:06.395Z,93142.00
2023-01-22T10:27:06.415Z,93142.00
2023-01-22T10:28:06.448Z,93140.00
2023-01-22T10:29:06.483Z,93140.00
2023-01-22T10:30:06.504Z,93138.00
2023-01-22T10:31:06.619Z,93138.00
2023-01-22T10:32:06.588Z,93140.00
2023-01-22T10:33:06.570Z,93140.00
2023-01-22T10:34:06.592Z,93138.00
2023-01-22T10:35:06.612Z,93136.00
2023-01-22T10:36:06.613Z,93140.00
2023-01-22T10:37:06.695Z,93140.00
2023-01-22T10:38:06.640Z,93138.00
2023-01-22T10:39:06.643Z,93140.00
2023-01-22T10:40:06.691Z,93138.00
2023-01-22T10:41:06.715Z,93136.00
2023-01-22T10:42:06.738Z,93140.00
2023-01-22T10:43:06.743Z,93138.00
2023-01-22T10:44:06.763Z,93136.00
2023-01-22T10:45:06.797Z,93138.00
2023-01-22T10:46:06.904Z,93138.00
2023-01-22T10:47:06.849Z,93140.00
2023-01-22T10:48:06.875Z,93140.00
2023-01-22T10:49:06.889Z,93142.00
2023-01-22T10:50:06.922Z,93136.00
2023-01-22T10:51:06.924Z,93136.00
2023-01-22T10:52:06.931Z,93134.00
2023-01-22T10:53:07.015Z,93138.00
2023-01-22T10:54:06.952Z,93140.00
2023-01-22T10:55:06.962Z,93138.00
2023-01-22T10:56:06.956Z,93138.00
2023-01-22T10:57:06.949Z,93136.00
2023-01-22T10:58:06.928Z,93136.00
2023-01-22T10:59:06.915Z,93134.00
2023-01-22T11:00:06.917Z,93136.00
2023-01-22T11:01:06.962Z,93132.00
2023-01-22T11:02:06.920Z,93134.00
2023-01-22T11:03:06.883Z,93134.00
2023-01-22T11:04:06.878Z,93134.00
2023-01-22T11:05:06.870Z,93132.00
2023-01-22T11:06:06.869Z,93134.00
2023-01-22T11:07:06.865Z,93134.00
2023-01-22T11:08:06.868Z,93132.00
2023-01-22T11:09:06.929Z,93130.00
2023-01-22T11:10:06.841Z,93128.00
2023-01-22T11:11:06.824Z,93132.00
2023-01-22T11:12:06.797Z,93130.00
2023-01-22T11:13:06.780Z,93130.00
2023-01-22T11:14:06.769Z,93128.00
2023-01-22T11:15:06.776Z,93128.00
2023-01-22T11:16:06.762Z,93126.00
2023-01-22T11:17:06.726Z,93128.00
2023-01-22T11:18:06.696Z,93128.00
2023-01-22T11:19:06.680Z,93128.00
2023-01-22T11:20:06.678Z,93126.00
2023-01-22T11:21:06.673Z,93130.00
2023-01-22T11:22:06.693Z,93130.00
2023-01-22T11:23:06.696Z,93130.00
2023-01-22T11:24:06.704Z,93130.00
2023-01-22T11:25:08.148Z,93128.00
2023-01-22T11:27:06.660Z,93130.00
2023-01-22T12:06:15.729Z,93122.00
2023-01-22T12:07:15.901Z,93118.00
2023-01-22T12:08:16.094Z,93116.00
2023-01-22T12:09:16.400Z,93118.00
2023-01-22T12:10:16.875Z,93114.00
2023-01-22T12:11:16.888Z,93114.00
2023-01-22T12:12:17.104Z,93114.00
2023-01-22T12:13:17.338Z,93114.00
2023-01-22T12:14:17.544Z,93114.00
2023-01-22T12:15:17.743Z,93116.00
2023-01-22T12:16:18.123Z,93116.00
2023-01-22T12:17:18.225Z,93116.00
2023-01-22T12:18:18.404Z,93114.00
2023-01-22T12:19:18.577Z,93116.00
2023-01-22T12:20:19.211Z,93116.00
2023-01-22T12:21:18.864Z,93116.00
2023-01-22T12:22:18.860Z,93116.00
2023-01-22T12:23:18.842Z,93116.00
2023-01-22T12:24:18.830Z,93122.00
2023-01-22T12:25:18.807Z,93120.00
2023-01-22T12:26:18.783Z,93122.00
2023-01-22T12:27:18.874Z,93124.00
2023-01-22T12:28:18.766Z,93124.00
2023-01-22T12:29:18.894Z,93126.00
2023-01-22T12:30:19.390Z,93126.00
2023-01-22T12:31:19.182Z,93128.00
2023-01-22T12:32:19.086Z,93124.00
2023-01-22T12:33:19.047Z,93124.00
2023-01-22T12:34:19.054Z,93122.00
2023-01-22T12:35:19.036Z,93124.00
2023-01-22T12:36:19.032Z,93124.00
2023-01-22T12:37:19.015Z,93122.00
2023-01-22T12:38:19.079Z,93122.00
2023-01-22T12:39:19.251Z,93122.00
2023-01-22T12:40:19.749Z,93122.00
2023-01-22T12:41:19.793Z,93122.00
2023-01-22T12:42:19.968Z,93122.00
2023-01-22T12:43:20.344Z,93122.00
2023-01-22T12:44:20.455Z,93118.00
2023-01-22T12:45:20.730Z,93118.00
2023-01-22T12:46:20.944Z,93120.00
2023-01-22T12:47:21.136Z,93116.00
2023-01-22T12:48:21.423Z,93118.00
2023-01-22T12:49:21.701Z,93112.00
2023-01-22T12:50:22.226Z,93112.00
2023-01-22T12:51:21.974Z,93114.00
2023-01-22T12:52:21.883Z,93116.00
2023-01-22T12:53:21.855Z,93111.00
2023-01-22T12:54:21.846Z,93114.00
2023-01-22T12:55:21.793Z,93114.00
2023-01-22T12:56:21.735Z,93112.00
2023-01-22T12:57:21.699Z,93114.00
2023-01-22T12:58:22.630Z,93111.00
2023-01-22T12:59:21.594Z,93111.00
2023-01-22T13:00:21.551Z,93111.00
2023-01-22T13:01:21.499Z,93109.00
2023-01-22T13:02:21.477Z,93109.00
2023-01-22T13:03:30.917Z,93111.00
2023-01-22T13:04:22.325Z,93112.00
2023-01-22T13:05:22.048Z,93112.00
2023-01-22T13:06:21.215Z,93109.00
2023-01-22T13:07:21.156Z,93111.00
2023-01-22T13:08:21.140Z,93107.00
2023-01-22T13:09:21.034Z,93111.00
2023-01-22T13:10:21.512Z,93105.00
2023-01-22T13:11:20.914Z,93107.00
2023-01-22T13:12:20.862Z,93109.00
2023-01-22T13:13:20.792Z,93111.00
2023-01-22T13:14:20.823Z,93109.00
2023-01-22T13:15:20.681Z,93109.00
2023-01-22T13:16:20.703Z,93112.00
2023-01-22T13:17:20.564Z,93111.00
2023-01-22T13:18:20.502Z,93114.00
2023-01-22T13:19:20.455Z,93118.00
2023-01-22T13:20:20.840Z,93116.00
2023-01-22T13:21:20.320Z,93118.00
2023-01-22T13:22:20.260Z,93116.00
2023-01-22T13:23:21.629Z,93116.00
2023-01-22T13:24:20.141Z,93122.00
2023-01-22T13:25:20.270Z,93122.00
2023-01-22T13:26:20.034Z,93124.00
2023-01-22T13:27:19.976Z,93126.00
2023-01-22T13:28:19.928Z,93122.00
2023-01-22T13:29:19.881Z,93122.00
2023-01-22T13:30:20.159Z,93126.00
2023-01-22T13:31:19.935Z,93124.00
2023-01-22T13:32:19.698Z,93126.00
2023-01-22T13:33:19.643Z,93126.00
2023-01-22T13:34:19.615Z,93124.00
2023-01-22T13:35:20.085Z,93124.00
2023-01-22T13:36:19.489Z,93124.00
2023-01-22T13:37:19.436Z,93126.00
2023-01-22T13:38:19.379Z,93128.00
2023-01-22T13:39:19.329Z,93128.00
2023-01-22T13:40:19.474Z,93130.00
2023-01-22T13:41:19.220Z,93130.00
2023-01-22T13:42:19.207Z,93130.00
2023-01-22T13:43:19.303Z,93140.00
2023-01-22T13:44:19.533Z,93136.00
2023-01-22T13:45:19.637Z,93138.00
2023-01-22T13:46:19.942Z,93138.00
2023-01-22T13:47:20.047Z,93140.00
2023-01-22T13:48:20.300Z,93138.00
2023-01-22T13:49:20.593Z,93140.00
2023-01-22T13:50:21.133Z,93138.00
2023-01-22T13:51:20.819Z,93138.00
2023-01-22T13:52:20.651Z,93138.00
2023-01-22T13:53:20.601Z,93138.00
2023-01-22T13:54:20.553Z,93142.00
2023-01-22T13:55:20.520Z,93140.00
2023-01-22T13:56:20.461Z,93140.00
2023-01-22T13:57:20.411Z,93140.00
2023-01-22T13:58:20.353Z,93142.00
2023-01-22T13:59:20.322Z,93140.00
2023-01-22T14:00:20.538Z,93144.00
2023-01-22T14:01:20.405Z,93142.00
2023-01-22T14:02:20.800Z,93146.00
2023-01-22T14:03:20.959Z,93146.00
2023-01-22T14:04:21.138Z,93146.00
2023-01-22T14:05:21.392Z,93146.00
2023-01-22T14:06:21.632Z,93148.00
2023-01-22T14:07:21.920Z,93144.00
2023-01-22T14:08:22.189Z,93148.00
2023-01-22T14:09:22.342Z,93146.00
2023-01-22T14:10:22.707Z,93146.00
2023-01-22T14:11:22.855Z,93144.00
2023-01-22T14:12:23.136Z,93148.00
2023-01-22T14:13:23.411Z,93148.00
2023-01-22T14:14:23.582Z,93148.00
2023-01-22T14:15:23.852Z,93150.00
2023-01-22T14:16:24.101Z,93152.00
2023-01-22T14:17:24.453Z,93152.00
2023-01-22T14:18:24.583Z,93152.00
2023-01-22T14:22:25.571Z,93152.00
2023-01-22T14:23:25.728Z,93150.00
2023-01-22T14:24:26.009Z,93150.00
2023-01-22T14:25:26.237Z,93148.00
2023-01-22T14:26:26.560Z,93152.00
2023-01-22T14:27:26.728Z,93146.00
2023-01-22T14:28:26.876Z,93142.00
2023-01-22T14:29:27.261Z,93144.00
2023-01-22T14:30:27.361Z,93144.00
2023-01-22T14:31:27.704Z,93146.00
2023-01-22T14:32:27.946Z,93146.00
2023-01-22T14:33:28.092Z,93148.00
2023-01-22T15:10:29.621Z,93156.00
2023-01-22T15:11:29.598Z,93158.00
2023-01-22T15:12:29.547Z,93154.00
2023-01-22T15:13:29.482Z,93156.00
2023-01-22T15:14:29.424Z,93156.00
2023-01-22T15:15:29.388Z,93154.00
2023-01-22T15:16:29.394Z,93156.00
2023-01-22T15:17:29.276Z,93156.00
2023-01-22T15:18:29.346Z,93154.00
2023-01-22T15:19:38.967Z,93152.00
2023-01-22T15:21:29.425Z,93154.00
2023-01-22T15:22:29.357Z,93158.00
2023-01-22T15:23:29.295Z,93158.00
2023-01-22T15:24:29.234Z,93156.00
2023-01-22T15:25:29.175Z,93158.00
2023-01-22T15:26:29.125Z,93160.00
2023-01-22T15:27:29.085Z,93154.00
2023-01-22T15:28:29.021Z,93160.00
2023-01-22T15:29:28.948Z,93158.00
2023-01-22T15:30:28.970Z,93158.00
2023-01-22T15:31:28.942Z,93158.00
2023-01-22T15:32:28.793Z,93160.00
2023-01-22T15:33:28.743Z,93156.00
2023-01-22T15:34:28.697Z,93160.00
2023-01-22T15:35:28.754Z,93160.00
2023-01-22T15:36:28.634Z,93162.00
2023-01-22T15:37:28.591Z,93158.00
2023-01-22T15:38:28.568Z,93160.00
2023-01-22T15:39:28.536Z,93162.00
2023-01-22T15:40:28.522Z,93162.00
2023-01-22T15:41:28.597Z,93162.00
2023-01-22T15:42:28.788Z,93167.00
2023-01-22T15:43:29.977Z,93167.00
2023-01-22T15:44:29.548Z,93167.00
2023-01-22T15:45:29.007Z,93169.00
2023-01-22T15:46:30.493Z,93167.00
2023-01-22T15:47:28.909Z,93167.00
2023-01-22T15:48:28.828Z,93167.00
2023-01-22T15:49:28.812Z,93171.00
2023-01-22T15:50:28.763Z,93167.00
2023-01-22T15:51:28.787Z,93169.00
2023-01-22T15:52:28.659Z,93166.00
2023-01-22T15:53:29.565Z,93167.00
2023-01-22T15:54:28.588Z,93167.00
2023-01-22T15:55:28.553Z,93169.00
2023-01-22T15:56:28.515Z,93169.00
2023-01-22T15:57:28.981Z,93171.00
2023-01-22T15:58:28.446Z,93171.00
2023-01-22T15:59:28.430Z,93171.00
2023-01-22T16:00:29.067Z,93175.00
2023-01-22T16:01:28.457Z,93175.00
2023-01-22T16:02:29.007Z,93177.00
2023-01-22T16:03:28.349Z,93179.00
2023-01-22T16:04:28.358Z,93177.00
2023-01-22T16:05:28.989Z,93179.00
2023-01-22T16:06:28.983Z,93177.00
2023-01-22T16:07:28.418Z,93177.00
2023-01-22T16:08:28.340Z,93177.00
2023-01-22T16:09:28.352Z,93177.00
2023-01-22T16:10:28.331Z,93179.00
2023-01-22T16:11:28.325Z,93177.00
2023-01-22T16:12:28.982Z,93179.00
2023-01-22T16:13:28.543Z,93179.00
2023-01-22T16:14:28.374Z,93181.00
2023-01-22T16:15:28.330Z,93179.00
2023-01-22T16:16:28.369Z,93177.00
2023-01-22T16:17:28.296Z,93179.00
2023-01-22T16:19:28.227Z,93181.00
2023-01-22T16:21:28.150Z,93183.00
2023-01-22T16:22:28.089Z,93185.00
2023-01-22T16:23:28.148Z,93185.00
2023-01-22T16:24:28.982Z,93183.00
2023-01-22T16:25:27.996Z,93189.00
2023-01-22T16:26:27.919Z,93187.00
2023-01-22T16:27:27.857Z,93189.00
2023-01-22T16:28:27.812Z,93189.00
2023-01-22T16:29:27.766Z,93189.00
2023-01-22T16:30:27.746Z,93187.00
2023-01-22T16:31:27.851Z,93193.00
2023-01-22T16:32:27.852Z,93193.00
2023-01-22T16:33:27.602Z,93193.00
2023-01-22T16:34:27.545Z,93195.00
2023-01-22T16:35:28.085Z,93197.00
2023-01-22T16:36:27.470Z,93193.00
2023-01-22T16:37:28.070Z,93193.00
2023-01-22T16:38:27.364Z,93197.00
2023-01-22T16:39:27.415Z,93197.00
2023-01-22T16:40:27.257Z,93195.00
2023-01-22T16:41:27.217Z,93199.00
2023-01-22T16:42:27.980Z,93197.00
2023-01-22T16:43:27.161Z,93195.00
2023-01-22T16:44:27.096Z,93197.00
2023-01-22T16:45:27.983Z,93199.00
2023-01-22T16:46:27.031Z,93195.00
2023-01-22T16:47:26.957Z,93197.00
2023-01-22T16:48:27.912Z,93197.00
2023-01-22T16:49:28.489Z,93203.00
2023-01-22T16:50:27.491Z,93201.00
2023-01-22T16:51:26.827Z,93205.00
2023-01-22T16:52:26.733Z,93205.00
2023-01-22T16:53:27.490Z,93207.00
2023-01-22T16:54:26.685Z,93209.00
2023-01-22T16:55:26.676Z,93211.00
2023-01-22T16:56:26.538Z,93211.00
2023-01-22T16:57:26.488Z,93213.00
2023-01-22T16:58:26.456Z,93216.00
2023-01-22T16:59:28.075Z,93216.00
2023-01-22T17:00:26.408Z,93218.00
2023-01-22T17:01:26.365Z,93218.00
2023-01-22T17:02:26.283Z,93220.00
2023-01-22T17:03:26.336Z,93222.00
2023-01-22T17:04:26.149Z,93224.00
2023-01-22T17:05:27.125Z,93226.00
2023-01-22T17:06:26.304Z,93228.00
2023-01-22T17:07:33.539Z,93232.00
2023-01-22T17:08:27.025Z,93232.00
2023-01-22T17:09:25.945Z,93232.00
2023-01-22T17:10:25.917Z,93232.00
2023-01-22T17:11:25.936Z,93234.00
2023-01-22T17:12:25.838Z,93234.00
2023-01-22T17:13:26.484Z,93234.00
2023-01-22T17:14:25.719Z,93236.00
2023-01-22T17:15:25.692Z,93236.00
2023-01-22T17:16:25.653Z,93236.00
2023-01-22T17:17:25.649Z,93238.00
2023-01-22T17:18:25.551Z,93238.00
2023-01-22T17:19:26.525Z,93240.00
2023-01-22T17:33:26.070Z,93264.00
2023-01-22T18:06:25.689Z,93281.00
2023-01-22T18:13:27.393Z,93289.00
2023-01-22T18:14:27.718Z,93291.00
2023-01-22T18:15:28.573Z,93291.00
2023-01-22T18:16:28.496Z,93293.00
2023-01-22T18:17:27.812Z,93293.00
2023-01-22T18:18:27.853Z,93293.00
2023-01-22T18:19:27.880Z,93297.00
2023-01-22T18:20:28.035Z,93295.00
2023-01-22T18:21:28.329Z,93297.00
2023-01-22T18:22:28.594Z,93297.00
2023-01-22T18:23:28.798Z,93297.00
2023-01-22T18:24:29.149Z,93299.00
2023-01-22T18:26:30.493Z,93299.00
2023-01-22T18:27:29.576Z,93301.00
2023-01-22T18:29:30.078Z,93305.00
2023-01-22T18:30:31.534Z,93305.00
2023-01-22T18:31:29.659Z,93305.00
2023-01-22T18:32:29.505Z,93305.00
2023-01-22T18:33:29.466Z,93307.00
2023-01-22T18:34:29.453Z,93305.00
2023-01-22T18:35:29.453Z,93309.00
2023-01-22T18:36:29.431Z,93313.00
2023-01-22T18:37:29.426Z,93313.00
2023-01-22T18:38:29.405Z,93313.00
2023-01-22T18:39:29.398Z,93313.00
2023-01-22T18:40:29.425Z,93315.00
2023-01-22T18:41:29.401Z,93318.00
2023-01-22T18:42:29.401Z,93315.00
2023-01-22T18:43:29.365Z,93316.00
2023-01-22T18:44:29.407Z,93318.00
2023-01-22T18:45:29.351Z,93315.00
2023-01-22T18:46:29.454Z,93320.00
2023-01-22T18:47:29.442Z,93320.00
2023-01-22T18:48:29.663Z,93320.00
2023-01-22T18:49:29.871Z,93320.00
2023-01-22T18:50:30.124Z,93322.00
2023-01-22T18:51:30.349Z,93324.00
2023-01-22T18:52:30.574Z,93324.00
2023-01-22T18:53:30.801Z,93326.00
2023-01-22T18:54:31.006Z,93326.00
2023-01-22T18:55:31.247Z,93328.00
2023-01-22T18:56:31.454Z,93330.00
2023-01-22T18:57:31.669Z,93330.00
2023-01-22T18:58:31.887Z,93328.00
2023-01-22T18:59:32.214Z,93330.00
2023-01-22T19:00:32.417Z,93332.00
2023-01-22T19:01:32.799Z,93332.00
2023-01-22T19:02:32.945Z,93332.00
2023-01-22T19:03:33.130Z,93334.00
2023-01-22T19:04:34.073Z,93334.00
2023-01-22T19:05:33.350Z,93336.00
2023-01-22T19:06:35.179Z,93336.00
2023-01-22T19:07:33.313Z,93338.00
2023-01-22T19:08:33.321Z,93336.00
2023-01-22T19:09:33.208Z,93340.00
2023-01-22T19:10:33.193Z,93338.00
2023-01-22T19:11:33.137Z,93340.00
2023-01-22T19:12:33.108Z,93336.00
2023-01-22T19:13:33.046Z,93340.00
2023-01-22T19:14:33.016Z,93338.00
2023-01-22T19:15:33.013Z,93338.00
2023-01-22T19:16:33.023Z,93340.00
2023-01-22T19:17:32.985Z,93342.00
2023-01-22T19:18:32.872Z,93344.00
2023-01-22T19:19:32.845Z,93353.00
2023-01-22T19:20:32.807Z,93355.00
2023-01-22T19:21:32.814Z,93357.00
2023-01-22T19:22:32.782Z,93355.00
2023-01-22T19:23:32.723Z,93355.00
2023-01-22T19:24:32.684Z,93357.00
2023-01-22T19:25:32.654Z,93355.00
2023-01-22T19:26:32.670Z,93359.00
2023-01-22T19:27:32.604Z,93346.00
2023-01-22T19:28:32.575Z,93353.00
2023-01-22T19:29:33.079Z,93355.00
2023-01-22T19:30:32.506Z,93355.00
2023-01-22T19:31:32.580Z,93359.00
2023-01-22T19:32:32.444Z,93357.00
2023-01-22T19:33:32.485Z,93359.00
2023-01-22T19:34:32.363Z,93357.00
2023-01-22T19:35:32.314Z,93357.00
2023-01-22T19:36:32.289Z,93359.00
2023-01-22T19:37:32.246Z,93355.00
2023-01-22T19:38:33.045Z,93357.00
2023-01-22T19:39:32.188Z,93357.00
2023-01-22T19:40:32.149Z,93357.00
2023-01-22T19:41:33.009Z,93355.00
2023-01-22T19:42:33.001Z,93359.00
2023-01-22T19:43:32.073Z,93357.00
2023-01-22T19:44:33.015Z,93359.00
2023-01-22T19:45:32.128Z,93361.00
2023-01-22T19:46:32.163Z,93359.00
2023-01-22T19:47:33.006Z,93359.00
2023-01-22T19:48:32.178Z,93359.00
2023-01-22T19:49:32.299Z,93359.00
2023-01-22T19:50:33.502Z,93359.00
2023-01-22T19:51:32.238Z,93359.00
2023-01-22T19:52:32.272Z,93361.00
2023-01-22T19:53:32.302Z,93361.00
2023-01-22T19:54:32.331Z,93365.00
2023-01-22T19:55:32.393Z,93367.00
2023-01-22T19:56:32.391Z,93367.00
2023-01-22T19:57:32.421Z,93371.00
2023-01-22T19:58:34.508Z,93375.00
2023-01-22T19:59:32.445Z,93373.00
2023-01-22T20:00:33.125Z,93373.00
2023-01-22T20:01:33.104Z,93377.00